Time;durP1;ratioP1;P1;durP2;ratioP2;P2;SDS_P1;SDS_P2;PMS_P1;PMS_P2;Temp;Humidity;BMP_temperature;BMP_pressure;BME280_temperature;BME280_humidity;BME280_pressure;Samples;Min_cycle;Max_cycle;Signal;HPM_P1;HPM_P2
2023/04/28 00:00:27;;;;;;;2.05;1.33;;;7.20;99.90;;;;;;5087777;28;20063;-66
2023/04/28 00:02:52;;;;;;;2.97;1.70;;;7.20;99.90;;;;;;5089677;28;20478;-65
2023/04/28 00:05:19;;;;;;;4.70;1.35;;;7.20;99.90;;;;;;5088525;28;20036;-65
2023/04/28 00:07:45;;;;;;;4.40;2.72;;;7.10;99.90;;;;;;5087631;28;20042;-66
2023/04/28 00:10:11;;;;;;;1.67;1.35;;;7.20;99.90;;;;;;5087806;28;20044;-65
2023/04/28 00:12:37;;;;;;;5.05;1.52;;;7.10;99.90;;;;;;5087899;28;20081;-65
2023/04/28 00:15:03;;;;;;;3.15;1.80;;;7.10;99.90;;;;;;5070541;28;20051;-65
2023/04/28 00:17:29;;;;;;;3.17;1.80;;;7.10;99.90;;;;;;5089446;28;20043;-66
2023/04/28 00:19:55;;;;;;;2.67;1.73;;;7.10;99.90;;;;;;5088182;28;20551;-66
2023/04/28 00:22:20;;;;;;;2.25;1.90;;;7.10;99.90;;;;;;5087520;28;20036;-65
2023/04/28 00:24:46;;;;;;;3.55;1.83;;;7.00;99.90;;;;;;5087783;28;20050;-66
2023/04/28 00:27:12;;;;;;;2.25;1.70;;;7.00;99.90;;;;;;5088066;28;20321;-66
2023/04/28 00:29:38;;;;;;;2.95;1.85;;;7.10;99.90;;;;;;5087060;28;20460;-65
2023/04/28 00:32:03;;;;;;;3.20;1.42;;;7.00;99.90;;;;;;5070916;28;20093;-65
2023/04/28 00:34:32;;;;;;;1.58;1.23;;;7.10;99.90;;;;;;5070945;28;20043;-64
2023/04/28 00:36:58;;;;;;;7.30;2.33;;;7.00;99.90;;;;;;5087805;28;20051;-66
2023/04/28 00:39:25;;;;;;;4.40;1.45;;;7.00;99.90;;;;;;5087878;28;20035;-65
2023/04/28 00:41:51;;;;;;;2.08;1.23;;;7.00;99.90;;;;;;5087130;28;20043;-66
2023/04/28 00:44:17;;;;;;;9.00;2.50;;;7.00;99.90;;;;;;5087719;28;20040;-65
2023/04/28 00:46:43;;;;;;;3.10;1.77;;;7.00;99.90;;;;;;5087572;28;20040;-64
2023/04/28 00:49:09;;;;;;;2.35;1.30;;;7.00;99.90;;;;;;5088462;28;20086;-65
2023/04/28 00:51:35;;;;;;;3.15;2.03;;;6.90;99.90;;;;;;5087752;28;20121;-66
2023/04/28 00:54:01;;;;;;;5.13;2.58;;;7.00;99.90;;;;;;5087428;28;20489;-65
2023/04/28 00:56:29;;;;;;;4.63;2.50;;;6.90;99.90;;;;;;5086778;28;20046;-65
2023/04/28 00:58:56;;;;;;;4.43;1.90;;;6.90;99.90;;;;;;5088970;28;20041;-65
2023/04/28 01:01:22;;;;;;;4.05;2.03;;;6.90;99.90;;;;;;5087614;28;20048;-66
2023/04/28 01:03:48;;;;;;;5.55;2.50;;;6.80;99.90;;;;;;5087191;28;20127;-65
2023/04/28 01:06:15;;;;;;;5.00;2.13;;;6.80;99.90;;;;;;5087710;28;20406;-66
2023/04/28 01:08:41;;;;;;;3.78;1.67;;;6.80;99.90;;;;;;5088912;28;20062;-66
2023/04/28 01:11:09;;;;;;;2.00;1.13;;;6.80;99.90;;;;;;5086832;28;20509;-66
2023/04/28 01:13:35;;;;;;;3.70;1.98;;;6.80;99.90;;;;;;5088409;28;20055;-65
2023/04/28 01:16:01;;;;;;;6.13;2.35;;;6.80;99.90;;;;;;5088534;28;20033;-66
2023/04/28 01:18:27;;;;;;;3.17;1.63;;;6.80;99.90;;;;;;5088004;28;20040;-64
2023/04/28 01:20:53;;;;;;;4.32;1.45;;;6.80;99.90;;;;;;5087483;28;20040;-66
2023/04/28 01:23:18;;;;;;;3.53;2.42;;;6.80;99.90;;;;;;5089703;28;20067;-65
2023/04/28 01:25:44;;;;;;;3.08;1.55;;;6.80;99.90;;;;;;5090546;28;20048;-66
2023/04/28 01:28:11;;;;;;;3.35;1.52;;;6.80;99.90;;;;;;5091367;28;20044;-66
2023/04/28 01:30:37;;;;;;;3.65;1.92;;;6.80;99.90;;;;;;5090504;28;20120;-64
2023/04/28 01:33:02;;;;;;;4.72;1.20;;;6.80;99.90;;;;;;5092661;28;20039;-65
2023/04/28 01:35:28;;;;;;;2.20;1.50;;;6.80;99.90;;;;;;5092622;28;20051;-64
2023/04/28 01:38:38;;;;;;;3.38;1.15;;;6.70;99.90;;;;;;5073969;28;20086;-64
2023/04/28 01:41:04;;;;;;;3.47;1.80;;;6.70;99.90;;;;;;5090984;28;20040;-65
2023/04/28 01:43:29;;;;;;;5.40;2.75;;;6.70;99.90;;;;;;5073930;28;20051;-66
2023/04/28 01:45:55;;;;;;;3.30;1.45;;;6.70;99.90;;;;;;5090137;28;20130;-64
2023/04/28 01:48:21;;;;;;;3.42;1.52;;;6.70;99.90;;;;;;5073900;28;20157;-66
2023/04/28 01:50:47;;;;;;;5.03;2.25;;;6.70;99.90;;;;;;5090974;28;20305;-66
2023/04/28 01:53:13;;;;;;;2.30;1.60;;;6.70;99.90;;;;;;5089961;28;20047;-65
2023/04/28 01:55:39;;;;;;;5.10;1.95;;;6.60;99.90;;;;;;5090584;28;20037;-65
2023/04/28 01:58:06;;;;;;;1.95;1.17;;;6.60;99.90;;;;;;5090811;28;20426;-66
2023/04/28 02:00:31;;;;;;;2.00;1.10;;;6.60;99.90;;;;;;5090349;28;20047;-66
2023/04/28 02:02:57;;;;;;;2.35;1.67;;;6.60;99.90;;;;;;5073872;28;20036;-66
2023/04/28 02:05:23;;;;;;;3.25;1.35;;;6.60;99.90;;;;;;5090773;28;20402;-66
2023/04/28 02:07:49;;;;;;;2.08;1.42;;;6.50;99.90;;;;;;5089943;28;20054;-65
2023/04/28 02:10:15;;;;;;;3.85;2.03;;;6.50;99.90;;;;;;5090302;28;20055;-66
2023/04/28 02:12:41;;;;;;;3.97;1.88;;;6.50;99.90;;;;;;5072593;28;20082;-65
2023/04/28 02:15:08;;;;;;;5.07;2.10;;;6.50;99.90;;;;;;5090160;28;20056;-66
2023/04/28 02:17:33;;;;;;;2.85;1.35;;;6.50;99.90;;;;;;5090441;28;20036;-65
2023/04/28 02:19:59;;;;;;;2.20;1.20;;;6.50;99.90;;;;;;5091180;28;20576;-66
2023/04/28 02:22:26;;;;;;;3.00;1.75;;;6.50;99.90;;;;;;5091525;28;20024;-67
2023/04/28 02:24:52;;;;;;;2.17;1.42;;;6.50;99.90;;;;;;5091662;28;20124;-66
2023/04/28 02:27:18;;;;;;;1.55;1.27;;;6.50;99.90;;;;;;5089544;28;20127;-65
2023/04/28 02:29:43;;;;;;;4.47;1.98;;;6.50;99.90;;;;;;5090338;28;20044;-66
2023/04/28 02:32:09;;;;;;;2.40;1.05;;;6.50;99.90;;;;;;5089785;28;20451;-66
2023/04/28 02:34:35;;;;;;;2.50;1.52;;;6.50;99.90;;;;;;5089149;28;20101;-66
2023/04/28 02:37:01;;;;;;;3.35;1.45;;;6.50;99.90;;;;;;5091440;28;20039;-66
2023/04/28 02:39:28;;;;;;;4.90;1.58;;;6.50;99.90;;;;;;5089789;28;20097;-65
2023/04/28 02:41:54;;;;;;;4.22;1.77;;;6.50;99.90;;;;;;5089022;28;20044;-67
2023/04/28 02:44:20;;;;;;;4.35;2.05;;;6.50;99.90;;;;;;5089586;28;20093;-66
2023/04/28 02:46:46;;;;;;;1.60;0.82;;;6.50;99.90;;;;;;5089956;28;20048;-67
2023/04/28 02:49:12;;;;;;;4.18;2.35;;;6.60;99.90;;;;;;5090220;28;20044;-66
2023/04/28 02:51:38;;;;;;;2.85;1.63;;;6.50;99.90;;;;;;5089779;28;20051;-66
2023/04/28 02:54:04;;;;;;;2.83;1.75;;;6.50;99.90;;;;;;5089567;28;20044;-66
2023/04/28 02:56:30;;;;;;;2.40;1.50;;;6.60;99.90;;;;;;5090290;28;20505;-66
2023/04/28 02:58:56;;;;;;;2.97;1.42;;;6.60;99.90;;;;;;5090680;28;20036;-67
2023/04/28 03:01:22;;;;;;;8.20;1.83;;;6.60;99.90;;;;;;5089653;28;20051;-67
2023/04/28 03:03:48;;;;;;;8.52;2.95;;;6.60;99.90;;;;;;5090095;28;20490;-66
2023/04/28 03:06:14;;;;;;;3.45;1.55;;;6.60;99.90;;;;;;5090864;28;20054;-66
2023/04/28 03:08:40;;;;;;;5.43;2.28;;;6.60;99.90;;;;;;5071766;28;20047;-66
2023/04/28 03:11:06;;;;;;;3.85;1.98;;;6.60;99.90;;;;;;5072209;28;20040;-66
2023/04/28 03:13:31;;;;;;;3.65;1.67;;;6.50;99.90;;;;;;5088902;28;20078;-66
2023/04/28 03:15:57;;;;;;;3.92;1.80;;;6.50;99.90;;;;;;5088740;28;20039;-66
2023/04/28 03:18:23;;;;;;;2.25;1.33;;;6.50;99.90;;;;;;5072152;28;20040;-66
2023/04/28 03:20:49;;;;;;;3.67;2.10;;;6.50;99.90;;;;;;5089262;28;20040;-66
2023/04/28 03:23:15;;;;;;;5.75;2.47;;;6.50;99.90;;;;;;5089599;28;20513;-66
2023/04/28 03:25:41;;;;;;;4.07;1.98;;;6.60;99.90;;;;;;5090712;28;20043;-66
2023/04/28 03:28:06;;;;;;;6.00;2.75;;;6.50;99.90;;;;;;5088851;28;20096;-66
2023/04/28 03:30:32;;;;;;;4.15;1.83;;;6.60;99.90;;;;;;5088203;28;20039;-66
2023/04/28 03:32:58;;;;;;;4.68;1.48;;;6.60;99.90;;;;;;5088741;28;20127;-66
2023/04/28 03:35:24;;;;;;;4.07;1.88;;;6.50;99.90;;;;;;5088778;28;20039;-66
2023/04/28 03:37:49;;;;;;;6.10;1.73;;;6.60;99.90;;;;;;5087980;28;20036;-66
2023/04/28 03:40:15;;;;;;;3.92;1.92;;;6.60;99.90;;;;;;5089832;28;20043;-66
2023/04/28 03:42:41;;;;;;;4.50;1.52;;;6.60;99.90;;;;;;5090007;28;20085;-66
2023/04/28 03:45:08;;;;;;;2.38;1.30;;;6.60;99.90;;;;;;5087345;28;20048;-66
2023/04/28 03:47:33;;;;;;;4.45;2.13;;;6.60;99.90;;;;;;5088517;28;20047;-66
2023/04/28 03:49:59;;;;;;;4.25;2.22;;;6.60;99.90;;;;;;5089695;28;20047;-66
2023/04/28 03:52:26;;;;;;;2.17;1.50;;;6.60;99.90;;;;;;5087824;28;20105;-65
2023/04/28 03:54:52;;;;;;;5.88;2.83;;;6.60;99.90;;;;;;5089777;28;20048;-66
2023/04/28 03:57:17;;;;;;;2.22;1.70;;;6.60;99.90;;;;;;5089900;28;20030;-66
2023/04/28 03:59:43;;;;;;;7.05;2.45;;;6.60;99.90;;;;;;5087909;28;20421;-66
2023/04/28 04:02:09;;;;;;;4.25;2.22;;;6.60;99.90;;;;;;5088356;28;20659;-67
2023/04/28 04:04:35;;;;;;;4.25;1.95;;;6.60;99.90;;;;;;5070778;28;20076;-66
2023/04/28 04:07:01;;;;;;;6.18;2.60;;;6.60;99.90;;;;;;5088077;28;20058;-66
2023/04/28 04:09:27;;;;;;;3.42;1.23;;;6.60;99.90;;;;;;5088070;28;20497;-66
2023/04/28 04:11:52;;;;;;;3.15;1.58;;;6.60;99.90;;;;;;5087236;28;20173;-66
2023/04/28 04:14:18;;;;;;;2.47;1.50;;;6.60;99.90;;;;;;5087905;28;20079;-66
2023/04/28 04:16:46;;;;;;;4.63;2.17;;;6.60;99.90;;;;;;5087933;28;20051;-66
2023/04/28 04:19:12;;;;;;;3.90;1.98;;;6.60;99.90;;;;;;5087834;28;20416;-67
2023/04/28 04:21:38;;;;;;;4.35;2.42;;;6.60;99.90;;;;;;5089485;28;20046;-66
2023/04/28 04:24:03;;;;;;;6.75;2.92;;;6.60;99.90;;;;;;5088366;28;20404;-66
2023/04/28 04:26:29;;;;;;;3.42;2.00;;;6.60;99.90;;;;;;5087597;28;20486;-66
2023/04/28 04:28:55;;;;;;;3.33;1.67;;;6.50;99.90;;;;;;5087785;28;20048;-66
2023/04/28 04:31:21;;;;;;;2.33;2.05;;;6.60;99.90;;;;;;5087909;28;20092;-67
2023/04/28 04:33:47;;;;;;;3.03;2.05;;;6.60;99.90;;;;;;5088371;28;20044;-66
2023/04/28 04:36:13;;;;;;;2.42;1.45;;;6.60;99.90;;;;;;5087696;28;20040;-66
2023/04/28 04:38:39;;;;;;;2.25;1.75;;;6.60;99.90;;;;;;5087991;28;20032;-66
2023/04/28 04:41:05;;;;;;;4.93;2.45;;;6.60;99.90;;;;;;5087226;28;20182;-65
2023/04/28 04:43:30;;;;;;;5.20;2.65;;;6.60;99.90;;;;;;5089111;28;20422;-66
2023/04/28 04:45:56;;;;;;;2.40;0.98;;;6.60;99.90;;;;;;5087590;28;20494;-66
2023/04/28 04:48:22;;;;;;;5.65;2.10;;;6.60;99.90;;;;;;5086871;28;20129;-66
2023/04/28 04:50:48;;;;;;;5.05;2.83;;;6.60;99.90;;;;;;5087833;28;20225;-66
2023/04/28 04:53:14;;;;;;;2.45;1.30;;;6.60;99.90;;;;;;5087709;28;20040;-67
2023/04/28 04:55:40;;;;;;;4.22;1.65;;;6.70;99.90;;;;;;5088253;28;20036;-67
2023/04/28 04:58:06;;;;;;;5.53;2.88;;;6.70;99.90;;;;;;5089797;28;20056;-66
2023/04/28 05:00:32;;;;;;;3.15;1.55;;;6.70;99.90;;;;;;5092083;28;20043;-66
2023/04/28 05:02:59;;;;;;;3.40;1.48;;;6.70;99.90;;;;;;5074846;28;20069;-66
2023/04/28 05:05:25;;;;;;;4.47;2.72;;;6.80;99.90;;;;;;5091479;28;20534;-66
2023/04/28 05:07:50;;;;;;;3.58;1.85;;;6.80;99.90;;;;;;5074116;28;20042;-67
2023/04/28 05:10:16;;;;;;;2.40;1.17;;;6.80;99.90;;;;;;5091364;28;20071;-67
2023/04/28 05:12:43;;;;;;;6.95;2.17;;;6.80;99.90;;;;;;5091336;28;20052;-67
2023/04/28 05:15:10;;;;;;;3.13;2.28;;;6.90;99.90;;;;;;5089597;28;20040;-66
2023/04/28 05:17:39;;;;;;;3.95;3.17;;;6.80;99.90;;;;;;5093036;28;20046;-66
2023/04/28 05:20:06;;;;;;;4.00;2.10;;;6.80;99.90;;;;;;5091843;28;20048;-66
2023/04/28 05:22:31;;;;;;;6.93;2.80;;;6.80;99.90;;;;;;5092283;28;20036;-66
2023/04/28 05:24:57;;;;;;;3.72;1.95;;;6.90;99.90;;;;;;5093637;28;20040;-66
2023/04/28 05:27:23;;;;;;;3.17;1.92;;;6.90;99.90;;;;;;5092521;28;20097;-67
2023/04/28 05:29:49;;;;;;;5.15;2.10;;;6.90;99.90;;;;;;5092059;28;20086;-66
2023/04/28 05:32:14;;;;;;;5.70;2.70;;;7.00;99.90;;;;;;5093832;28;20561;-67
2023/04/28 05:34:40;;;;;;;4.25;2.00;;;7.00;99.90;;;;;;5091870;28;20084;-66
2023/04/28 05:37:06;;;;;;;5.45;2.60;;;7.00;99.90;;;;;;5091473;28;20506;-66
2023/04/28 05:39:32;;;;;;;6.45;2.28;;;7.00;99.90;;;;;;5092287;28;20390;-66
2023/04/28 05:41:57;;;;;;;6.22;2.13;;;7.00;99.90;;;;;;5093371;28;20051;-67
2023/04/28 05:44:23;;;;;;;4.60;1.73;;;7.10;99.90;;;;;;5092895;28;20047;-66
2023/04/28 05:46:49;;;;;;;4.55;2.53;;;7.10;99.90;;;;;;5091899;28;20044;-66
2023/04/28 05:49:15;;;;;;;5.18;2.88;;;7.10;99.90;;;;;;5091917;28;20048;-66
2023/04/28 05:51:41;;;;;;;4.57;2.22;;;7.10;99.90;;;;;;5091565;28;20056;-67
2023/04/28 05:54:07;;;;;;;4.32;2.10;;;7.20;99.90;;;;;;5091758;28;20505;-66
2023/04/28 05:56:33;;;;;;;4.95;2.40;;;7.20;99.90;;;;;;5091258;28;20036;-67
2023/04/28 05:59:02;;;;;;;3.92;2.40;;;7.20;99.90;;;;;;5058220;28;20042;-67
2023/04/28 06:01:29;;;;;;;2.72;2.13;;;7.30;99.90;;;;;;5091616;28;20044;-67
2023/04/28 06:03:57;;;;;;;3.08;1.92;;;7.30;99.90;;;;;;5091040;28;20054;-66
2023/04/28 06:06:24;;;;;;;8.00;3.28;;;7.30;99.90;;;;;;5093124;28;20047;-66
2023/04/28 06:08:50;;;;;;;4.32;2.20;;;7.30;99.90;;;;;;5090980;28;20036;-66
2023/04/28 06:11:21;;;;;;;5.40;2.88;;;7.30;99.90;;;;;;5090625;28;20039;-66
2023/04/28 06:13:50;;;;;;;3.90;2.47;;;7.30;99.90;;;;;;5091852;28;20056;-66
2023/04/28 06:16:17;;;;;;;4.65;2.03;;;7.30;99.90;;;;;;5091086;28;20040;-66
2023/04/28 06:18:44;;;;;;;3.83;2.08;;;7.40;99.90;;;;;;5110766;28;20044;-66
2023/04/28 06:21:10;;;;;;;4.05;1.85;;;7.40;99.90;;;;;;5113060;28;20092;-67
2023/04/28 06:23:37;;;;;;;4.63;3.15;;;7.50;99.90;;;;;;5111782;28;20043;-66
2023/04/28 06:26:03;;;;;;;5.93;2.85;;;7.50;99.90;;;;;;5109832;28;20047;-66
2023/04/28 06:28:29;;;;;;;1.55;1.17;;;7.50;99.90;;;;;;5112276;28;20031;-66
2023/04/28 06:30:54;;;;;;;4.72;2.17;;;7.60;99.90;;;;;;5110449;28;20051;-66
2023/04/28 06:33:20;;;;;;;4.00;2.42;;;7.60;99.90;;;;;;5111083;28;20032;-66
2023/04/28 06:35:46;;;;;;;3.35;1.58;;;7.70;99.90;;;;;;5111858;28;20035;-66
2023/04/28 06:38:12;;;;;;;8.57;2.22;;;7.70;99.90;;;;;;5110498;28;20505;-66
2023/04/28 06:40:39;;;;;;;4.45;2.33;;;7.70;99.90;;;;;;5109541;28;20400;-66
2023/04/28 06:43:05;;;;;;;3.28;1.92;;;7.70;99.90;;;;;;5111633;28;20046;-66
2023/04/28 06:45:31;;;;;;;2.55;1.85;;;7.80;99.90;;;;;;5109754;28;20043;-66
2023/04/28 06:47:56;;;;;;;5.65;2.67;;;7.90;99.90;;;;;;5110655;28;20043;-66
2023/04/28 06:50:23;;;;;;;3.72;2.05;;;7.90;99.90;;;;;;5111752;28;20100;-66
2023/04/28 06:52:48;;;;;;;2.63;1.50;;;7.90;99.90;;;;;;5109402;28;20362;-65
2023/04/28 06:55:16;;;;;;;7.30;2.63;;;7.90;99.90;;;;;;5109881;28;20050;-66
2023/04/28 06:57:42;;;;;;;7.13;2.72;;;8.00;99.90;;;;;;5109925;28;20042;-66
2023/04/28 07:00:09;;;;;;;4.47;2.58;;;8.00;99.90;;;;;;5110876;28;20041;-67
2023/04/28 07:02:35;;;;;;;3.25;1.52;;;8.00;99.90;;;;;;5111034;28;20166;-66
2023/04/28 07:05:02;;;;;;;3.38;1.65;;;8.10;99.90;;;;;;5109635;28;20048;-66
2023/04/28 07:07:28;;;;;;;5.85;2.38;;;8.10;99.90;;;;;;5110484;28;20040;-66
2023/04/28 07:09:54;;;;;;;3.78;1.83;;;8.20;99.90;;;;;;5109571;28;20492;-66
2023/04/28 07:12:21;;;;;;;4.18;1.65;;;8.30;99.90;;;;;;5107820;28;20074;-67
2023/04/28 07:14:47;;;;;;;5.18;2.78;;;8.40;99.90;;;;;;5088369;28;20542;-67
2023/04/28 07:17:13;;;;;;;3.08;1.80;;;8.50;99.90;;;;;;5090673;28;20042;-67
2023/04/28 07:19:39;;;;;;;3.63;2.55;;;8.50;99.90;;;;;;5089734;28;20040;-66
2023/04/28 07:22:05;;;;;;;5.40;2.28;;;8.60;99.90;;;;;;5088256;28;20046;-66
2023/04/28 07:24:31;;;;;;;4.43;2.47;;;8.60;99.90;;;;;;5072027;28;20043;-67
2023/04/28 07:26:57;;;;;;;2.28;1.42;;;8.60;99.90;;;;;;5089188;28;20051;-66
2023/04/28 07:29:23;;;;;;;4.85;2.10;;;8.60;99.90;;;;;;5089865;28;20386;-66
2023/04/28 07:31:49;;;;;;;4.13;1.65;;;8.70;99.90;;;;;;5089090;28;20044;-66
2023/04/28 07:34:15;;;;;;;3.92;1.80;;;8.80;99.90;;;;;;5088703;28;20047;-66
2023/04/28 07:36:41;;;;;;;3.92;1.15;;;8.80;99.90;;;;;;5089303;28;20115;-67
2023/04/28 07:39:07;;;;;;;4.00;2.15;;;8.80;99.90;;;;;;5088890;28;20047;-66
2023/04/28 07:41:39;;;;;;;3.78;1.88;;;8.80;99.90;;;;;;5089533;28;20375;-67
2023/04/28 07:44:07;;;;;;;6.80;2.47;;;8.80;99.90;;;;;;5088903;28;20058;-67
2023/04/28 07:46:33;;;;;;;5.85;2.67;;;8.80;99.90;;;;;;5101087;28;20044;-67
2023/04/28 07:48:59;;;;;;;4.97;2.35;;;8.80;99.90;;;;;;5108191;28;20500;-67
2023/04/28 07:51:27;;;;;;;4.72;1.40;;;8.80;99.90;;;;;;5109083;28;20049;-67
2023/04/28 07:54:02;;;;;;;5.00;2.33;;;8.80;99.90;;;;;;5109046;28;20381;-66
2023/04/28 07:56:28;;;;;;;7.18;1.98;;;8.80;99.90;;;;;;5109301;28;20045;-66
2023/04/28 07:58:55;;;;;;;8.57;2.97;;;8.80;99.90;;;;;;5108795;28;20043;-66
2023/04/28 08:01:21;;;;;;;4.82;2.55;;;8.80;99.90;;;;;;5108791;28;20031;-66
2023/04/28 08:03:47;;;;;;;3.47;1.42;;;8.90;99.90;;;;;;5108128;28;20035;-66
2023/04/28 08:06:13;;;;;;;5.63;3.40;;;8.90;99.90;;;;;;5109505;28;20507;-66
2023/04/28 08:08:39;;;;;;;7.80;2.25;;;9.00;99.90;;;;;;5108250;28;20047;-67
2023/04/28 08:11:05;;;;;;;7.53;4.30;;;9.10;99.90;;;;;;5107095;28;20039;-66
2023/04/28 08:13:32;;;;;;;9.60;3.83;;;9.20;99.90;;;;;;5107740;28;20062;-66
2023/04/28 08:16:00;;;;;;;13.93;5.13;;;9.30;99.90;;;;;;5108382;28;20054;-66
2023/04/28 08:18:26;;;;;;;6.00;2.35;;;9.40;99.90;;;;;;5107948;28;20039;-67
2023/04/28 08:20:52;;;;;;;4.40;2.65;;;9.50;99.90;;;;;;5107602;28;20036;-66
2023/04/28 08:23:19;;;;;;;5.95;2.13;;;9.60;99.90;;;;;;5107849;28;20085;-66
2023/04/28 08:25:45;;;;;;;4.60;2.40;;;9.70;99.90;;;;;;5090791;28;20146;-66
2023/04/28 08:28:11;;;;;;;4.10;1.92;;;9.70;99.90;;;;;;5108321;28;20118;-66
2023/04/28 08:30:37;;;;;;;5.75;2.13;;;9.70;99.90;;;;;;5107524;28;20127;-66
2023/04/28 08:33:03;;;;;;;4.95;2.15;;;9.70;99.90;;;;;;5108091;28;20130;-66
2023/04/28 08:35:29;;;;;;;4.05;2.00;;;9.80;99.90;;;;;;5109420;28;20036;-66
2023/04/28 08:37:55;;;;;;;4.43;2.67;;;10.00;99.90;;;;;;5107606;28;20043;-66
2023/04/28 08:40:23;;;;;;;3.58;2.10;;;10.10;99.90;;;;;;5108026;28;20430;-66
2023/04/28 08:42:48;;;;;;;4.70;1.90;;;10.10;99.90;;;;;;5108081;28;20066;-66
2023/04/28 08:45:15;;;;;;;3.28;1.70;;;10.10;99.90;;;;;;5107024;28;20500;-65
2023/04/28 08:47:44;;;;;;;3.63;1.85;;;10.20;99.90;;;;;;5108199;28;20132;-65
2023/04/28 08:50:11;;;;;;;4.13;2.42;;;10.20;99.90;;;;;;5109089;28;20040;-66
2023/04/28 08:52:39;;;;;;;2.20;1.30;;;10.30;99.90;;;;;;5108325;28;20054;-67
2023/04/28 08:55:09;;;;;;;6.35;2.85;;;10.30;99.90;;;;;;5107802;28;20481;-66
2023/04/28 08:57:59;;;;;;;6.43;1.98;;;10.30;99.90;;;;;;5107646;28;20051;-66
2023/04/28 09:00:25;;;;;;;6.47;1.92;;;10.30;99.90;;;;;;5107050;28;20531;-66
2023/04/28 09:02:51;;;;;;;4.65;1.95;;;10.30;99.90;;;;;;5107844;28;20043;-66
2023/04/28 09:05:17;;;;;;;3.95;2.17;;;10.40;99.90;;;;;;5107797;28;20488;-66
2023/04/28 09:07:47;;;;;;;3.60;1.98;;;10.40;99.90;;;;;;5106899;28;20064;-66
2023/04/28 09:10:17;;;;;;;5.35;3.03;;;10.40;99.90;;;;;;5107434;28;20043;-66
2023/04/28 09:12:43;;;;;;;7.60;2.67;;;10.50;99.90;;;;;;5106790;28;20058;-65
2023/04/28 09:15:09;;;;;;;5.43;2.17;;;10.50;99.90;;;;;;5107910;28;20066;-67
2023/04/28 09:17:51;;;;;;;4.50;2.55;;;10.60;99.90;;;;;;5109060;28;20039;-66
2023/04/28 09:20:21;;;;;;;3.15;2.08;;;10.70;99.90;;;;;;5106968;28;20040;-65
2023/04/28 09:22:48;;;;;;;6.50;2.53;;;11.00;99.90;;;;;;5108296;28;20568;-66
2023/04/28 09:25:15;;;;;;;6.43;2.95;;;11.30;99.90;;;;;;5110260;28;20054;-66
2023/04/28 09:27:40;;;;;;;4.38;2.72;;;11.80;99.90;;;;;;5108228;28;20052;-66
2023/04/28 09:30:08;;;;;;;3.63;1.83;;;12.20;99.90;;;;;;5110281;28;20039;-66
2023/04/28 09:32:35;;;;;;;6.30;2.20;;;12.30;99.90;;;;;;5108800;28;20501;-65
2023/04/28 09:35:03;;;;;;;2.80;1.98;;;12.40;99.90;;;;;;5109674;28;20058;-66
2023/04/28 09:37:30;;;;;;;3.83;2.25;;;12.50;99.90;;;;;;5110237;28;20036;-66
2023/04/28 09:40:03;;;;;;;4.68;2.13;;;12.50;99.90;;;;;;5108638;28;20036;-66
2023/04/28 09:42:41;;;;;;;3.25;1.92;;;12.60;99.90;;;;;;5108061;28;20042;-66
2023/04/28 09:45:10;;;;;;;4.15;2.05;;;12.70;99.90;;;;;;5112922;28;20050;-66
2023/04/28 09:47:43;;;;;;;2.40;1.67;;;13.00;99.90;;;;;;5113066;28;20100;-66
2023/04/28 09:50:13;;;;;;;5.65;2.72;;;13.30;99.90;;;;;;5112480;28;20043;-65
2023/04/28 09:52:41;;;;;;;4.30;2.30;;;13.70;99.90;;;;;;5112804;28;20096;-66
2023/04/28 09:55:10;;;;;;;3.05;1.67;;;14.20;99.90;;;;;;5111163;28;20489;-65
2023/04/28 09:57:36;;;;;;;;;;;14.50;99.90;;;;;;5095754;28;20077;-68
2023/04/28 10:00:07;;;;;;;6.38;2.80;;;14.50;99.90;;;;;;5112154;28;19959;-65
2023/04/28 10:02:35;;;;;;;3.72;2.10;;;14.30;99.90;;;;;;5110602;28;20043;-66
2023/04/28 10:05:02;;;;;;;7.75;3.58;;;14.10;99.90;;;;;;5110752;28;20040;-66
2023/04/28 10:07:29;;;;;;;2.95;1.95;;;13.90;99.90;;;;;;5112321;28;20580;-66
2023/04/28 10:09:58;;;;;;;5.40;2.13;;;13.90;99.90;;;;;;5094099;28;20078;-66
2023/04/28 10:12:24;;;;;;;3.75;1.80;;;13.80;99.90;;;;;;5109896;28;20087;-67
2023/04/28 10:14:53;;;;;;;5.45;1.58;;;13.70;99.90;;;;;;5110846;28;20093;-67
2023/04/28 10:17:21;;;;;;;2.53;1.53;;;13.80;99.90;;;;;;5110134;28;20039;-66
2023/04/28 10:19:50;;;;;;;5.00;2.65;;;13.80;99.90;;;;;;5093825;28;20050;-67
2023/04/28 10:22:21;;;;;;;;;;;13.80;99.90;;;;;;5111108;28;20047;-66
2023/04/28 10:25:03;;;;;;;5.22;1.88;;;13.90;99.90;;;;;;5092937;28;19960;-66
2023/04/28 10:27:30;;;;;;;4.85;2.17;;;14.10;99.90;;;;;;5110547;28;20401;-66
2023/04/28 10:30:16;;;;;;;4.78;2.38;;;14.20;99.90;;;;;;5109580;28;20061;-67
2023/04/28 10:32:44;;;;;;;3.55;1.95;;;14.40;99.90;;;;;;5111643;28;20053;-66
2023/04/28 10:35:29;;;;;;;3.88;1.90;;;14.60;99.90;;;;;;5094514;28;20036;-67
2023/04/28 10:38:22;;;;;;;4.30;1.70;;;14.60;99.90;;;;;;5112438;28;20042;-66
2023/04/28 10:40:50;;;;;;;3.05;1.38;;;14.50;99.90;;;;;;5111608;28;20040;-66
2023/04/28 10:43:28;;;;;;;2.90;1.50;;;14.50;99.90;;;;;;5111552;28;20043;-66
2023/04/28 10:45:54;;;;;;;2.45;1.65;;;14.40;99.90;;;;;;5110010;28;20044;-67
2023/04/28 10:48:33;;;;;;;5.18;2.28;;;14.30;99.90;;;;;;5110165;28;20040;-67
2023/04/28 10:51:24;;;;;;;4.97;2.03;;;14.30;99.90;;;;;;5110214;28;20043;-66
2023/04/28 10:53:49;;;;;;;2.08;1.63;;;14.30;99.90;;;;;;5112265;28;20393;-66
2023/04/28 10:56:20;;;;;;;5.93;2.45;;;14.40;99.90;;;;;;5093988;28;20043;-67
2023/04/28 10:58:47;;;;;;;3.80;1.90;;;14.30;99.90;;;;;;5109818;28;20039;-66
2023/04/28 11:01:19;;;;;;;3.63;1.80;;;14.30;99.90;;;;;;5112227;28;20093;-66
2023/04/28 11:04:06;;;;;;;4.57;1.75;;;14.20;99.90;;;;;;5110845;28;20043;-66
2023/04/28 11:06:41;;;;;;;4.32;2.33;;;14.20;99.90;;;;;;5111998;28;20043;-66
2023/04/28 11:09:19;;;;;;;3.28;1.70;;;14.20;99.90;;;;;;5110907;28;20077;-67
2023/04/28 11:11:56;;;;;;;2.95;1.30;;;14.20;99.90;;;;;;5111923;28;20050;-66
2023/04/28 11:14:22;;;;;;;3.10;1.80;;;14.10;99.90;;;;;;5110838;28;20039;-67
2023/04/28 11:16:52;;;;;;;3.78;2.03;;;13.90;99.90;;;;;;5110521;28;20485;-66
2023/04/28 11:19:26;;;;;;;4.38;2.10;;;13.80;99.90;;;;;;5111185;28;20504;-66
2023/04/28 11:21:56;;;;;;;4.68;2.35;;;13.70;99.90;;;;;;5093886;28;20047;-66
2023/04/28 11:24:26;;;;;;;2.35;1.45;;;13.60;99.90;;;;;;5110719;28;20047;-67
2023/04/28 11:26:52;;;;;;;;;;;13.50;99.90;;;;;;5110733;28;20050;-66
2023/04/28 11:29:36;;;;;;;3.90;1.98;;;13.50;99.90;;;;;;5110491;28;19915;-65
2023/04/28 11:32:07;;;;;;;4.80;1.75;;;13.50;99.90;;;;;;5093551;28;20055;-66
2023/04/28 11:34:33;;;;;;;7.88;2.85;;;13.40;99.90;;;;;;5109738;28;20126;-66
2023/04/28 11:37:00;;;;;;;3.88;2.10;;;13.40;99.90;;;;;;5093548;28;20147;-65
2023/04/28 11:39:29;;;;;;;6.20;3.05;;;13.40;99.90;;;;;;5110356;28;20078;-66
2023/04/28 11:41:56;;;;;;;4.25;2.80;;;13.40;99.90;;;;;;5110051;28;20451;-66
2023/04/28 11:44:25;;;;;;;5.28;2.95;;;13.30;99.90;;;;;;5110151;28;20069;-65
2023/04/28 11:46:56;;;;;;;3.47;2.40;;;13.10;99.90;;;;;;5109686;28;20039;-65
2023/04/28 11:49:23;;;;;;;7.43;2.92;;;13.00;99.90;;;;;;5110480;28;20469;-66
2023/04/28 11:51:50;;;;;;;2.83;2.38;;;12.90;99.90;;;;;;5111618;28;20535;-66
2023/04/28 11:54:21;;;;;;;3.40;2.47;;;12.90;99.90;;;;;;5109414;28;20054;-66
2023/04/28 11:56:47;;;;;;;4.57;2.33;;;12.90;99.90;;;;;;5110284;28;20104;-66
2023/04/28 11:59:13;;;;;;;8.82;2.55;;;12.90;99.90;;;;;;5109898;28;20050;-67
2023/04/28 12:01:45;;;;;;;8.50;2.92;;;12.90;99.90;;;;;;5109284;28;20037;-67
2023/04/28 12:04:12;;;;;;;3.65;2.70;;;13.00;99.90;;;;;;5109946;28;20047;-67
2023/04/28 12:06:39;;;;;;;5.05;2.50;;;13.00;99.90;;;;;;5110725;28;20118;-67
2023/04/28 12:09:20;;;;;;;3.95;2.40;;;13.10;99.90;;;;;;5109231;28;20078;-68
2023/04/28 12:12:13;;;;;;;3.70;2.47;;;13.00;99.90;;;;;;5111269;28;20053;-68
2023/04/28 12:14:57;;;;;;;5.00;2.53;;;12.90;99.90;;;;;;5106943;28;20062;-68
2023/04/28 12:17:27;;;;;;;4.55;2.20;;;12.90;99.90;;;;;;5109662;28;20119;-68
2023/04/28 12:19:58;;;;;;;4.03;2.42;;;12.80;99.90;;;;;;5109855;28;20082;-68
2023/04/28 12:22:24;;;;;;;4.50;2.63;;;12.80;99.90;;;;;;5110495;28;20525;-67
2023/04/28 12:25:03;;;;;;;6.60;2.90;;;12.80;99.90;;;;;;5111123;28;20393;-67
2023/04/28 12:27:31;;;;;;;7.70;3.08;;;12.70;99.90;;;;;;5109490;28;20539;-68
2023/04/28 12:29:57;;;;;;;8.18;3.00;;;12.60;99.90;;;;;;5110438;28;20040;-68
2023/04/28 12:32:44;;;;;;;6.55;3.63;;;12.60;99.90;;;;;;5109555;28;20035;-68
2023/04/28 12:35:10;;;;;;;6.85;3.72;;;12.50;99.90;;;;;;5092250;28;20494;-65
2023/04/28 12:37:37;;;;;;;9.40;5.05;;;12.50;99.90;;;;;;5110253;28;20412;-66
2023/04/28 12:40:05;;;;;;;6.65;3.97;;;12.50;99.90;;;;;;5109571;28;20109;-67
2023/04/28 12:42:31;;;;;;;8.35;4.88;;;12.50;99.90;;;;;;5109591;28;20392;-66
2023/04/28 12:44:57;;;;;;;10.77;4.22;;;12.50;99.90;;;;;;5109909;28;20040;-66
2023/04/28 12:47:23;;;;;;;12.93;4.97;;;12.50;99.90;;;;;;5110450;28;20046;-64
2023/04/28 12:49:51;;;;;;;13.90;5.07;;;12.50;99.90;;;;;;5091883;28;20047;-65
2023/04/28 12:52:18;;;;;;;9.55;4.63;;;12.50;99.90;;;;;;5092560;28;20083;-66
2023/04/28 12:54:46;;;;;;;11.38;6.07;;;12.60;99.90;;;;;;5110506;28;20099;-65
2023/04/28 12:57:16;;;;;;;10.07;5.80;;;12.60;99.90;;;;;;5110125;28;20442;-66